sensor_id;sensor_type;location;lat;lon;timestamp;pressure;altitude;pressure_sealevel;temperature;humidity
47218;BME280;47282;53.362;-2.222;2022-07-06T00:02:05;101902.48;;;14.92;54.78
47218;BME280;47282;53.362;-2.222;2022-07-06T00:04:33;101903.32;;;14.80;54.32
47218;BME280;47282;53.362;-2.222;2022-07-06T00:07:01;101904.84;;;14.67;54.50
47218;BME280;47282;53.362;-2.222;2022-07-06T00:09:30;101908.80;;;14.53;54.62
47218;BME280;47282;53.362;-2.222;2022-07-06T00:11:58;101911.57;;;14.61;54.46
47218;BME280;47282;53.362;-2.222;2022-07-06T00:14:26;101910.12;;;14.23;54.73
47218;BME280;47282;53.362;-2.222;2022-07-06T00:16:54;101910.48;;;14.08;54.65
47218;BME280;47282;53.362;-2.222;2022-07-06T00:19:22;101906.36;;;14.48;54.76
47218;BME280;47282;53.362;-2.222;2022-07-06T00:21:50;101901.62;;;14.38;54.91
47218;BME280;47282;53.362;-2.222;2022-07-06T00:24:19;101899.14;;;14.01;55.29
47218;BME280;47282;53.362;-2.222;2022-07-06T00:26:47;101892.97;;;14.22;55.52
47218;BME280;47282;53.362;-2.222;2022-07-06T00:29:15;101895.23;;;13.90;56.10
47218;BME280;47282;53.362;-2.222;2022-07-06T00:31:43;101898.72;;;14.13;56.30
47218;BME280;47282;53.362;-2.222;2022-07-06T00:34:11;101893.97;;;14.12;56.41
47218;BME280;47282;53.362;-2.222;2022-07-06T00:36:39;101892.95;;;14.09;56.57
47218;BME280;47282;53.362;-2.222;2022-07-06T00:39:07;101893.08;;;14.08;56.74
47218;BME280;47282;53.362;-2.222;2022-07-06T00:41:36;101893.30;;;14.08;57.33
47218;BME280;47282;53.362;-2.222;2022-07-06T00:44:08;101891.04;;;14.09;57.21
47218;BME280;47282;53.362;-2.222;2022-07-06T00:46:36;101887.03;;;14.10;57.40
47218;BME280;47282;53.362;-2.222;2022-07-06T00:49:04;101886.65;;;13.84;57.37
47218;BME280;47282;53.362;-2.222;2022-07-06T00:51:35;101891.03;;;13.83;57.58
47218;BME280;47282;53.362;-2.222;2022-07-06T00:54:04;101891.52;;;14.08;57.84
47218;BME280;47282;53.362;-2.222;2022-07-06T00:56:34;101889.89;;;14.07;57.99
47218;BME280;47282;53.362;-2.222;2022-07-06T00:59:03;101889.77;;;14.07;58.42
47218;BME280;47282;53.362;-2.222;2022-07-06T01:01:31;101890.01;;;14.08;58.41
47218;BME280;47282;53.362;-2.222;2022-07-06T01:03:59;101891.46;;;14.11;58.73
47218;BME280;47282;53.362;-2.222;2022-07-06T01:06:28;101890.14;;;14.14;58.78
47218;BME280;47282;53.362;-2.222;2022-07-06T01:08:56;101890.35;;;14.14;59.11
47218;BME280;47282;53.362;-2.222;2022-07-06T01:11:25;101895.43;;;14.14;59.23
47218;BME280;47282;53.362;-2.222;2022-07-06T01:13:55;101898.52;;;14.16;59.50
47218;BME280;47282;53.362;-2.222;2022-07-06T01:16:24;101898.63;;;14.19;59.47
47218;BME280;47282;53.362;-2.222;2022-07-06T01:18:52;101895.66;;;14.17;59.66
47218;BME280;47282;53.362;-2.222;2022-07-06T01:21:20;101895.05;;;14.16;59.81
47218;BME280;47282;53.362;-2.222;2022-07-06T01:23:49;101897.05;;;14.17;59.99
47218;BME280;47282;53.362;-2.222;2022-07-06T01:26:19;101893.23;;;14.20;59.86
47218;BME280;47282;53.362;-2.222;2022-07-06T01:28:49;101889.96;;;14.21;60.02
47218;BME280;47282;53.362;-2.222;2022-07-06T01:31:20;101890.81;;;14.21;60.13
47218;BME280;47282;53.362;-2.222;2022-07-06T01:33:50;101885.12;;;14.22;60.08
47218;BME280;47282;53.362;-2.222;2022-07-06T01:36:18;101875.88;;;13.96;60.30
47218;BME280;47282;53.362;-2.222;2022-07-06T01:38:48;101873.89;;;14.24;60.15
47218;BME280;47282;53.362;-2.222;2022-07-06T01:41:16;101875.30;;;14.25;60.24
47218;BME280;47282;53.362;-2.222;2022-07-06T01:43:45;101874.84;;;13.99;60.26
47218;BME280;47282;53.362;-2.222;2022-07-06T01:46:14;101870.20;;;14.01;60.89
47218;BME280;47282;53.362;-2.222;2022-07-06T01:48:42;101866.82;;;14.29;60.61
47218;BME280;47282;53.362;-2.222;2022-07-06T01:51:11;101867.03;;;14.33;61.36
47218;BME280;47282;53.362;-2.222;2022-07-06T01:53:39;101865.26;;;14.14;61.66
47218;BME280;47282;53.362;-2.222;2022-07-06T01:56:08;101857.36;;;14.48;61.96
47218;BME280;47282;53.362;-2.222;2022-07-06T01:58:36;101853.19;;;14.27;62.49
47218;BME280;47282;53.362;-2.222;2022-07-06T02:01:08;101843.64;;;14.35;62.75
47218;BME280;47282;53.362;-2.222;2022-07-06T02:03:36;101831.37;;;14.20;62.97
47218;BME280;47282;53.362;-2.222;2022-07-06T02:06:06;101818.24;;;14.49;63.13
47218;BME280;47282;53.362;-2.222;2022-07-06T02:08:35;101817.36;;;14.32;63.35
47218;BME280;47282;53.362;-2.222;2022-07-06T02:11:04;101816.50;;;14.59;63.80
47218;BME280;47282;53.362;-2.222;2022-07-06T02:13:32;101826.49;;;14.66;63.72
47218;BME280;47282;53.362;-2.222;2022-07-06T02:16:01;101825.99;;;14.47;64.27
47218;BME280;47282;53.362;-2.222;2022-07-06T02:18:30;101816.46;;;15.01;64.07
47218;BME280;47282;53.362;-2.222;2022-07-06T02:20:58;101807.49;;;14.80;64.11
47218;BME280;47282;53.362;-2.222;2022-07-06T02:23:27;101811.14;;;14.61;64.14
47218;BME280;47282;53.362;-2.222;2022-07-06T02:25:55;101808.55;;;14.63;64.40
47218;BME280;47282;53.362;-2.222;2022-07-06T02:28:23;101809.75;;;14.64;64.72
47218;BME280;47282;53.362;-2.222;2022-07-06T02:30:51;101812.87;;;14.87;64.91
47218;BME280;47282;53.362;-2.222;2022-07-06T02:33:27;101811.05;;;14.67;64.74
47218;BME280;47282;53.362;-2.222;2022-07-06T02:35:55;101811.36;;;14.71;64.60
47218;BME280;47282;53.362;-2.222;2022-07-06T02:38:23;101813.20;;;14.95;64.84
47218;BME280;47282;53.362;-2.222;2022-07-06T02:40:51;101815.64;;;14.97;65.03
47218;BME280;47282;53.362;-2.222;2022-07-06T02:43:19;101813.79;;;14.76;65.18
47218;BME280;47282;53.362;-2.222;2022-07-06T02:45:47;101811.75;;;14.78;65.27
47218;BME280;47282;53.362;-2.222;2022-07-06T02:48:16;101808.39;;;15.01;65.34
47218;BME280;47282;53.362;-2.222;2022-07-06T02:50:44;101809.01;;;14.81;65.26
47218;BME280;47282;53.362;-2.222;2022-07-06T02:53:12;101814.73;;;15.05;65.21
47218;BME280;47282;53.362;-2.222;2022-07-06T02:55:40;101813.45;;;14.83;65.29
47218;BME280;47282;53.362;-2.222;2022-07-06T02:58:08;101817.52;;;14.83;65.49
47218;BME280;47282;53.362;-2.222;2022-07-06T03:00:36;101819.32;;;14.84;65.59
47218;BME280;47282;53.362;-2.222;2022-07-06T03:03:04;101822.76;;;14.83;65.74
47218;BME280;47282;53.362;-2.222;2022-07-06T03:05:32;101825.64;;;14.86;65.71
47218;BME280;47282;53.362;-2.222;2022-07-06T03:08:00;101824.58;;;14.89;65.60
47218;BME280;47282;53.362;-2.222;2022-07-06T03:10:29;101824.09;;;14.89;65.56
47218;BME280;47282;53.362;-2.222;2022-07-06T03:12:57;101827.78;;;15.13;65.56
47218;BME280;47282;53.362;-2.222;2022-07-06T03:15:25;101828.56;;;14.91;65.71
47218;BME280;47282;53.362;-2.222;2022-07-06T03:17:53;101826.74;;;14.69;65.77
47218;BME280;47282;53.362;-2.222;2022-07-06T03:20:21;101825.56;;;14.92;65.65
47218;BME280;47282;53.362;-2.222;2022-07-06T03:22:50;101824.04;;;14.94;65.59
47218;BME280;47282;53.362;-2.222;2022-07-06T03:25:18;101824.28;;;14.93;65.69
47218;BME280;47282;53.362;-2.222;2022-07-06T03:27:46;101826.01;;;14.95;65.74
47218;BME280;47282;53.362;-2.222;2022-07-06T03:30:14;101823.80;;;14.95;65.75
47218;BME280;47282;53.362;-2.222;2022-07-06T03:32:42;101819.41;;;14.94;65.79
47218;BME280;47282;53.362;-2.222;2022-07-06T03:35:10;101821.19;;;14.94;65.96
47218;BME280;47282;53.362;-2.222;2022-07-06T03:37:38;101820.13;;;14.94;65.99
47218;BME280;47282;53.362;-2.222;2022-07-06T03:40:07;101824.29;;;14.94;66.21
47218;BME280;47282;53.362;-2.222;2022-07-06T03:42:36;101818.98;;;15.16;66.12
47218;BME280;47282;53.362;-2.222;2022-07-06T03:45:04;101823.89;;;14.95;66.06
47218;BME280;47282;53.362;-2.222;2022-07-06T03:47:33;101832.45;;;14.97;65.99
47218;BME280;47282;53.362;-2.222;2022-07-06T03:50:01;101834.13;;;14.97;66.06
47218;BME280;47282;53.362;-2.222;2022-07-06T03:52:29;101833.19;;;15.00;65.95
47218;BME280;47282;53.362;-2.222;2022-07-06T03:54:57;101832.22;;;15.03;65.88
47218;BME280;47282;53.362;-2.222;2022-07-06T03:57:25;101837.28;;;15.04;65.93
47218;BME280;47282;53.362;-2.222;2022-07-06T03:59:53;101837.90;;;15.05;66.06
47218;BME280;47282;53.362;-2.222;2022-07-06T04:02:21;101837.66;;;15.06;66.08
47218;BME280;47282;53.362;-2.222;2022-07-06T04:04:50;101829.96;;;15.09;66.15
47218;BME280;47282;53.362;-2.222;2022-07-06T04:07:18;101828.22;;;15.13;66.09
47218;BME280;47282;53.362;-2.222;2022-07-06T04:09:46;101836.09;;;15.17;66.10
47218;BME280;47282;53.362;-2.222;2022-07-06T04:12:14;101836.19;;;15.19;65.94
47218;BME280;47282;53.362;-2.222;2022-07-06T04:14:42;101839.86;;;15.23;65.80
47218;BME280;47282;53.362;-2.222;2022-07-06T04:17:10;101837.46;;;15.26;65.75
47218;BME280;47282;53.362;-2.222;2022-07-06T04:19:38;101840.35;;;15.29;65.67
47218;BME280;47282;53.362;-2.222;2022-07-06T04:22:06;101835.57;;;15.32;65.67
47218;BME280;47282;53.362;-2.222;2022-07-06T04:24:35;101833.76;;;15.35;65.51
47218;BME280;47282;53.362;-2.222;2022-07-06T04:27:03;101832.08;;;14.89;65.47
47218;BME280;47282;53.362;-2.222;2022-07-06T04:29:31;101824.82;;;15.43;65.48
47218;BME280;47282;53.362;-2.222;2022-07-06T04:31:59;101815.89;;;15.49;65.36
47218;BME280;47282;53.362;-2.222;2022-07-06T04:34:28;101813.33;;;15.59;65.17
47218;BME280;47282;53.362;-2.222;2022-07-06T04:36:56;101817.44;;;15.65;65.07
47218;BME280;47282;53.362;-2.222;2022-07-06T04:39:24;101815.07;;;15.23;64.92
47218;BME280;47282;53.362;-2.222;2022-07-06T04:41:52;101818.28;;;15.76;64.91
47218;BME280;47282;53.362;-2.222;2022-07-06T04:44:20;101821.84;;;15.63;64.75
47218;BME280;47282;53.362;-2.222;2022-07-06T04:46:48;101823.18;;;15.95;64.66
47218;BME280;47282;53.362;-2.222;2022-07-06T04:49:16;101825.34;;;15.50;64.61
47218;BME280;47282;53.362;-2.222;2022-07-06T04:51:45;101827.54;;;15.51;64.62
47218;BME280;47282;53.362;-2.222;2022-07-06T04:54:13;101833.33;;;15.48;64.59
47218;BME280;47282;53.362;-2.222;2022-07-06T04:56:41;101837.42;;;15.70;64.58
47218;BME280;47282;53.362;-2.222;2022-07-06T04:59:09;101835.63;;;15.37;64.67
47218;BME280;47282;53.362;-2.222;2022-07-06T05:01:37;101828.03;;;15.60;64.65
47218;BME280;47282;53.362;-2.222;2022-07-06T05:04:05;101827.72;;;15.58;64.63
47218;BME280;47282;53.362;-2.222;2022-07-06T05:06:34;101828.20;;;15.31;64.51
47218;BME280;47282;53.362;-2.222;2022-07-06T05:09:03;101829.37;;;15.82;64.53
47218;BME280;47282;53.362;-2.222;2022-07-06T05:11:31;101837.21;;;15.31;64.47
47218;BME280;47282;53.362;-2.222;2022-07-06T05:13:59;101834.70;;;15.27;64.57
47218;BME280;47282;53.362;-2.222;2022-07-06T05:16:27;101838.48;;;15.26;64.51
47218;BME280;47282;53.362;-2.222;2022-07-06T05:18:55;101834.47;;;15.25;64.48
47218;BME280;47282;53.362;-2.222;2022-07-06T05:21:23;101830.40;;;15.73;64.42
47218;BME280;47282;53.362;-2.222;2022-07-06T05:23:52;101836.99;;;15.27;64.38
47218;BME280;47282;53.362;-2.222;2022-07-06T05:26:20;101838.23;;;15.60;64.27
47218;BME280;47282;53.362;-2.222;2022-07-06T05:28:48;101839.28;;;15.89;64.15
47218;BME280;47282;53.362;-2.222;2022-07-06T05:31:16;101843.97;;;15.69;64.05
47218;BME280;47282;53.362;-2.222;2022-07-06T05:33:44;101851.29;;;15.72;63.96
47218;BME280;47282;53.362;-2.222;2022-07-06T05:36:13;101854.51;;;15.74;63.83
47218;BME280;47282;53.362;-2.222;2022-07-06T05:38:41;101851.72;;;15.45;63.72
47218;BME280;47282;53.362;-2.222;2022-07-06T05:41:10;101853.16;;;15.70;63.82
47218;BME280;47282;53.362;-2.222;2022-07-06T05:43:38;101847.16;;;15.91;63.90
47218;BME280;47282;53.362;-2.222;2022-07-06T05:46:06;101844.62;;;15.45;63.94
47218;BME280;47282;53.362;-2.222;2022-07-06T05:48:34;101846.02;;;15.79;63.83
47218;BME280;47282;53.362;-2.222;2022-07-06T05:51:02;101846.45;;;15.57;63.65
47218;BME280;47282;53.362;-2.222;2022-07-06T05:53:31;101847.50;;;15.56;63.78
47218;BME280;47282;53.362;-2.222;2022-07-06T05:55:59;101849.84;;;15.54;63.91
47218;BME280;47282;53.362;-2.222;2022-07-06T05:58:27;101847.66;;;15.77;64.04
47218;BME280;47282;53.362;-2.222;2022-07-06T06:00:55;101844.40;;;15.76;64.03
47218;BME280;47282;53.362;-2.222;2022-07-06T06:03:23;101846.97;;;15.76;64.07
47218;BME280;47282;53.362;-2.222;2022-07-06T06:05:51;101848.89;;;15.95;64.09
47218;BME280;47282;53.362;-2.222;2022-07-06T06:08:20;101849.78;;;15.41;64.04
47218;BME280;47282;53.362;-2.222;2022-07-06T06:10:48;101845.95;;;15.36;63.92
47218;BME280;47282;53.362;-2.222;2022-07-06T06:13:16;101847.11;;;15.81;64.09
47218;BME280;47282;53.362;-2.222;2022-07-06T06:15:44;101844.46;;;15.30;64.32
47218;BME280;47282;53.362;-2.222;2022-07-06T06:18:12;101851.07;;;15.81;64.48
47218;BME280;47282;53.362;-2.222;2022-07-06T06:20:40;101851.11;;;15.86;64.61
47218;BME280;47282;53.362;-2.222;2022-07-06T06:23:09;101857.60;;;15.69;64.39
47218;BME280;47282;53.362;-2.222;2022-07-06T06:25:38;101863.48;;;15.73;64.50
47218;BME280;47282;53.362;-2.222;2022-07-06T06:28:08;101862.63;;;15.53;64.38
47218;BME280;47282;53.362;-2.222;2022-07-06T06:30:38;101866.54;;;16.04;64.37
47218;BME280;47282;53.362;-2.222;2022-07-06T06:33:07;101864.72;;;15.56;64.50
47218;BME280;47282;53.362;-2.222;2022-07-06T06:35:36;101863.57;;;15.58;64.57
47218;BME280;47282;53.362;-2.222;2022-07-06T06:38:04;101862.53;;;15.61;64.58
47218;BME280;47282;53.362;-2.222;2022-07-06T06:40:32;101868.78;;;15.90;64.50
47218;BME280;47282;53.362;-2.222;2022-07-06T06:43:01;101869.64;;;15.63;64.56
47218;BME280;47282;53.362;-2.222;2022-07-06T06:45:29;101870.87;;;15.64;64.50
47218;BME280;47282;53.362;-2.222;2022-07-06T06:47:57;101871.07;;;15.64;64.54
47218;BME280;47282;53.362;-2.222;2022-07-06T06:50:26;101867.24;;;16.13;64.71
47218;BME280;47282;53.362;-2.222;2022-07-06T06:52:54;101859.89;;;16.15;64.71
47218;BME280;47282;53.362;-2.222;2022-07-06T06:55:23;101859.65;;;16.21;64.65
47218;BME280;47282;53.362;-2.222;2022-07-06T06:57:51;101863.95;;;16.23;64.63
47218;BME280;47282;53.362;-2.222;2022-07-06T07:00:19;101862.87;;;15.77;64.70
47218;BME280;47282;53.362;-2.222;2022-07-06T07:02:47;101859.98;;;15.77;64.67
47218;BME280;47282;53.362;-2.222;2022-07-06T07:05:15;101863.37;;;15.80;64.62
47218;BME280;47282;53.362;-2.222;2022-07-06T07:07:44;101863.99;;;15.84;64.59
47218;BME280;47282;53.362;-2.222;2022-07-06T07:10:12;101860.81;;;15.92;64.42
47218;BME280;47282;53.362;-2.222;2022-07-06T07:12:45;101860.16;;;16.02;64.29
47218;BME280;47282;53.362;-2.222;2022-07-06T07:15:14;101859.79;;;16.20;64.08
47218;BME280;47282;53.362;-2.222;2022-07-06T07:17:43;101863.59;;;16.35;63.86
47218;BME280;47282;53.362;-2.222;2022-07-06T07:20:12;101865.04;;;16.50;63.66
47218;BME280;47282;53.362;-2.222;2022-07-06T07:22:40;101868.08;;;16.60;63.57
47218;BME280;47282;53.362;-2.222;2022-07-06T07:25:09;101865.41;;;16.60;63.60
47218;BME280;47282;53.362;-2.222;2022-07-06T07:27:37;101865.20;;;16.53;63.81
47218;BME280;47282;53.362;-2.222;2022-07-06T07:30:06;101869.52;;;16.58;63.75
47218;BME280;47282;53.362;-2.222;2022-07-06T07:32:34;101863.91;;;16.69;63.56
47218;BME280;47282;53.362;-2.222;2022-07-06T07:35:03;101866.48;;;16.81;63.43
47218;BME280;47282;53.362;-2.222;2022-07-06T07:37:32;101860.16;;;16.93;63.25
47218;BME280;47282;53.362;-2.222;2022-07-06T07:40:01;101861.34;;;17.13;62.96
47218;BME280;47282;53.362;-2.222;2022-07-06T07:42:29;101856.15;;;17.31;62.00
47218;BME280;47282;53.362;-2.222;2022-07-06T07:44:57;101852.27;;;17.56;61.72
47218;BME280;47282;53.362;-2.222;2022-07-06T07:47:25;101856.80;;;17.64;61.67
47218;BME280;47282;53.362;-2.222;2022-07-06T07:49:54;101858.65;;;17.53;61.84
47218;BME280;47282;53.362;-2.222;2022-07-06T07:52:22;101853.18;;;17.46;61.98
47218;BME280;47282;53.362;-2.222;2022-07-06T07:54:50;101853.82;;;17.52;61.93
47218;BME280;47282;53.362;-2.222;2022-07-06T07:57:19;101857.94;;;17.82;61.76
47218;BME280;47282;53.362;-2.222;2022-07-06T07:59:47;101862.31;;;17.83;61.37
47218;BME280;47282;53.362;-2.222;2022-07-06T08:02:15;101860.62;;;17.98;61.15
47218;BME280;47282;53.362;-2.222;2022-07-06T08:04:43;101862.80;;;17.84;61.33
47218;BME280;47282;53.362;-2.222;2022-07-06T08:07:11;101859.43;;;17.76;61.47
47218;BME280;47282;53.362;-2.222;2022-07-06T08:09:39;101857.39;;;18.01;61.09
47218;BME280;47282;53.362;-2.222;2022-07-06T08:12:09;101855.61;;;18.12;60.98
47218;BME280;47282;53.362;-2.222;2022-07-06T08:14:37;101854.70;;;18.00;60.63
47218;BME280;47282;53.362;-2.222;2022-07-06T08:17:05;101855.72;;;18.38;60.07
47218;BME280;47282;53.362;-2.222;2022-07-06T08:19:33;101861.63;;;18.69;59.33
47218;BME280;47282;53.362;-2.222;2022-07-06T08:22:01;101861.72;;;18.87;59.37
47218;BME280;47282;53.362;-2.222;2022-07-06T08:24:30;101862.11;;;19.35;58.81
47218;BME280;47282;53.362;-2.222;2022-07-06T08:26:58;101863.96;;;19.30;57.99
47218;BME280;47282;53.362;-2.222;2022-07-06T08:29:26;101861.68;;;19.56;57.68
47218;BME280;47282;53.362;-2.222;2022-07-06T08:31:54;101861.68;;;19.33;57.99
47218;BME280;47282;53.362;-2.222;2022-07-06T08:34:22;101860.09;;;18.81;58.85
47218;BME280;47282;53.362;-2.222;2022-07-06T08:36:51;101856.48;;;18.54;59.25
47218;BME280;47282;53.362;-2.222;2022-07-06T08:39:19;101859.02;;;18.32;59.45
47218;BME280;47282;53.362;-2.222;2022-07-06T08:41:48;101854.57;;;18.15;59.53
47218;BME280;47282;53.362;-2.222;2022-07-06T08:44:17;101859.55;;;18.59;58.67
47218;BME280;47282;53.362;-2.222;2022-07-06T08:46:46;101861.38;;;19.37;57.37
47218;BME280;47282;53.362;-2.222;2022-07-06T08:49:17;101857.14;;;20.25;55.82
47218;BME280;47282;53.362;-2.222;2022-07-06T08:51:46;101859.81;;;20.41;55.58
47218;BME280;47282;53.362;-2.222;2022-07-06T08:54:15;101861.68;;;20.69;54.81
47218;BME280;47282;53.362;-2.222;2022-07-06T08:56:43;101861.37;;;20.85;54.73
47218;BME280;47282;53.362;-2.222;2022-07-06T08:59:12;101861.43;;;20.92;54.76
47218;BME280;47282;53.362;-2.222;2022-07-06T09:01:40;101863.34;;;21.14;54.22
47218;BME280;47282;53.362;-2.222;2022-07-06T09:04:09;101864.79;;;21.49;53.56
47218;BME280;47282;53.362;-2.222;2022-07-06T09:06:37;101867.31;;;21.59;53.12
47218;BME280;47282;53.362;-2.222;2022-07-06T09:09:08;101862.95;;;21.07;53.95
47218;BME280;47282;53.362;-2.222;2022-07-06T09:11:37;101863.69;;;21.44;54.04
47218;BME280;47282;53.362;-2.222;2022-07-06T09:14:05;101870.66;;;21.06;54.11
47218;BME280;47282;53.362;-2.222;2022-07-06T09:16:33;101876.21;;;20.67;53.83
47218;BME280;47282;53.362;-2.222;2022-07-06T09:19:02;101866.76;;;20.71;54.35
47218;BME280;47282;53.362;-2.222;2022-07-06T09:21:31;101864.57;;;20.48;54.86
47218;BME280;47282;53.362;-2.222;2022-07-06T09:24:01;101861.16;;;20.91;53.80
47218;BME280;47282;53.362;-2.222;2022-07-06T09:26:29;101861.36;;;21.28;53.10
47218;BME280;47282;53.362;-2.222;2022-07-06T09:28:58;101856.78;;;22.99;49.97
47218;BME280;47282;53.362;-2.222;2022-07-06T09:31:27;101852.67;;;23.18;49.20
47218;BME280;47282;53.362;-2.222;2022-07-06T09:33:56;101858.45;;;23.36;48.37
47218;BME280;47282;53.362;-2.222;2022-07-06T09:36:39;101857.56;;;24.10;47.01
47218;BME280;47282;53.362;-2.222;2022-07-06T09:39:19;101861.40;;;23.56;47.48
47218;BME280;47282;53.362;-2.222;2022-07-06T09:41:49;101858.27;;;22.80;48.61
47218;BME280;47282;53.362;-2.222;2022-07-06T09:44:21;101854.30;;;22.19;49.70
47218;BME280;47282;53.362;-2.222;2022-07-06T09:46:50;101861.79;;;21.77;50.44
47218;BME280;47282;53.362;-2.222;2022-07-06T09:49:19;101860.09;;;21.69;50.58
47218;BME280;47282;53.362;-2.222;2022-07-06T09:51:51;101852.76;;;22.38;49.45
47218;BME280;47282;53.362;-2.222;2022-07-06T09:54:19;101859.26;;;23.98;46.32
47218;BME280;47282;53.362;-2.222;2022-07-06T09:56:49;101859.95;;;27.94;41.57
47218;BME280;47282;53.362;-2.222;2022-07-06T09:59:19;101851.36;;;28.49;39.20
47218;BME280;47282;53.362;-2.222;2022-07-06T10:01:51;101846.20;;;27.98;39.68
47218;BME280;47282;53.362;-2.222;2022-07-06T10:04:20;101845.46;;;27.02;41.51
47218;BME280;47282;53.362;-2.222;2022-07-06T10:06:49;101848.91;;;25.41;43.38
47218;BME280;47282;53.362;-2.222;2022-07-06T10:09:19;101851.64;;;24.96;43.88
47218;BME280;47282;53.362;-2.222;2022-07-06T10:11:49;101853.06;;;24.55;44.12
47218;BME280;47282;53.362;-2.222;2022-07-06T10:14:20;101851.42;;;24.95;42.91
47218;BME280;47282;53.362;-2.222;2022-07-06T10:16:49;101851.74;;;27.01;40.00
47218;BME280;47282;53.362;-2.222;2022-07-06T10:19:18;101852.70;;;27.10;39.76
47218;BME280;47282;53.362;-2.222;2022-07-06T10:21:47;101846.75;;;26.82;40.20
47218;BME280;47282;53.362;-2.222;2022-07-06T10:24:16;101853.94;;;25.84;40.96
47218;BME280;47282;53.362;-2.222;2022-07-06T10:26:46;101854.11;;;24.63;42.48
47218;BME280;47282;53.362;-2.222;2022-07-06T10:29:15;101855.21;;;23.57;42.82
47218;BME280;47282;53.362;-2.222;2022-07-06T10:31:45;101850.68;;;22.91;43.51
47218;BME280;47282;53.362;-2.222;2022-07-06T10:34:15;101856.51;;;22.65;43.77
47218;BME280;47282;53.362;-2.222;2022-07-06T10:36:50;101848.86;;;23.59;42.77
47218;BME280;47282;53.362;-2.222;2022-07-06T10:39:33;101853.32;;;24.21;41.58
47218;BME280;47282;53.362;-2.222;2022-07-06T10:42:01;101861.50;;;25.00;40.50
47218;BME280;47282;53.362;-2.222;2022-07-06T10:44:29;101860.01;;;26.25;39.06
47218;BME280;47282;53.362;-2.222;2022-07-06T10:46:58;101853.72;;;26.57;38.53
47218;BME280;47282;53.362;-2.222;2022-07-06T10:49:27;101855.52;;;26.84;38.16
47218;BME280;47282;53.362;-2.222;2022-07-06T10:51:56;101860.08;;;26.25;38.84
47218;BME280;47282;53.362;-2.222;2022-07-06T10:54:25;101856.29;;;25.46;39.73
47218;BME280;47282;53.362;-2.222;2022-07-06T10:56:53;101854.33;;;24.38;40.61
47218;BME280;47282;53.362;-2.222;2022-07-06T10:59:22;101853.32;;;24.18;40.94
47218;BME280;47282;53.362;-2.222;2022-07-06T11:02:23;101853.10;;;23.79;41.23
47218;BME280;47282;53.362;-2.222;2022-07-06T11:04:51;101849.74;;;23.08;42.02
47218;BME280;47282;53.362;-2.222;2022-07-06T11:07:20;101843.40;;;22.61;42.63
47218;BME280;47282;53.362;-2.222;2022-07-06T11:09:54;101841.55;;;22.61;42.72
47218;BME280;47282;53.362;-2.222;2022-07-06T11:12:23;101827.35;;;23.65;41.13
47218;BME280;47282;53.362;-2.222;2022-07-06T11:14:52;101822.57;;;26.55;37.97
47218;BME280;47282;53.362;-2.222;2022-07-06T11:17:21;101818.94;;;26.30;37.72
47218;BME280;47282;53.362;-2.222;2022-07-06T11:19:50;101819.65;;;25.88;38.09
47218;BME280;47282;53.362;-2.222;2022-07-06T11:22:18;101814.08;;;25.43;38.83
47218;BME280;47282;53.362;-2.222;2022-07-06T11:24:47;101820.47;;;24.70;39.41
47218;BME280;47282;53.362;-2.222;2022-07-06T11:27:15;101822.82;;;24.24;39.75
47218;BME280;47282;53.362;-2.222;2022-07-06T11:29:43;101820.73;;;24.11;39.56
47218;BME280;47282;53.362;-2.222;2022-07-06T11:32:12;101816.35;;;25.11;38.05
47218;BME280;47282;53.362;-2.222;2022-07-06T11:34:43;101825.31;;;28.67;34.44
47218;BME280;47282;53.362;-2.222;2022-07-06T11:37:13;101818.47;;;31.34;31.17
47218;BME280;47282;53.362;-2.222;2022-07-06T11:39:43;101813.96;;;34.19;28.45
47218;BME280;47282;53.362;-2.222;2022-07-06T11:42:14;101803.04;;;34.92;26.92
47218;BME280;47282;53.362;-2.222;2022-07-06T11:44:43;101810.56;;;33.25;28.12
47218;BME280;47282;53.362;-2.222;2022-07-06T11:47:12;101815.10;;;31.50;28.92
47218;BME280;47282;53.362;-2.222;2022-07-06T11:49:41;101808.31;;;30.45;30.62
47218;BME280;47282;53.362;-2.222;2022-07-06T11:52:10;101810.64;;;30.15;30.14
47218;BME280;47282;53.362;-2.222;2022-07-06T11:54:39;101811.71;;;29.70;31.07
47218;BME280;47282;53.362;-2.222;2022-07-06T11:57:10;101814.44;;;28.49;32.50
47218;BME280;47282;53.362;-2.222;2022-07-06T11:59:40;101815.82;;;27.71;33.69
47218;BME280;47282;53.362;-2.222;2022-07-06T12:02:11;101814.27;;;27.76;33.94
47218;BME280;47282;53.362;-2.222;2022-07-06T12:04:41;101823.31;;;27.30;34.26
47218;BME280;47282;53.362;-2.222;2022-07-06T12:07:10;101819.95;;;27.25;34.64
47218;BME280;47282;53.362;-2.222;2022-07-06T12:09:40;101814.44;;;26.44;35.24
47218;BME280;47282;53.362;-2.222;2022-07-06T12:12:10;101825.31;;;25.55;35.95
47218;BME280;47282;53.362;-2.222;2022-07-06T12:14:40;101814.79;;;25.15;36.50
47218;BME280;47282;53.362;-2.222;2022-07-06T12:17:09;101817.90;;;24.77;37.14
47218;BME280;47282;53.362;-2.222;2022-07-06T12:19:39;101816.87;;;24.36;37.78
47218;BME280;47282;53.362;-2.222;2022-07-06T12:22:08;101814.46;;;23.86;38.33
47218;BME280;47282;53.362;-2.222;2022-07-06T12:24:42;101812.10;;;23.82;38.69
47218;BME280;47282;53.362;-2.222;2022-07-06T12:27:11;101808.49;;;24.10;38.65
47218;BME280;47282;53.362;-2.222;2022-07-06T12:29:40;101794.78;;;24.65;38.14
47218;BME280;47282;53.362;-2.222;2022-07-06T12:32:14;101802.32;;;24.36;38.37
47218;BME280;47282;53.362;-2.222;2022-07-06T12:34:43;101799.37;;;24.20;38.69
47218;BME280;47282;53.362;-2.222;2022-07-06T12:37:12;101795.97;;;24.46;38.82
47218;BME280;47282;53.362;-2.222;2022-07-06T12:39:42;101797.26;;;24.27;38.70
47218;BME280;47282;53.362;-2.222;2022-07-06T12:42:13;101792.54;;;24.18;38.96
47218;BME280;47282;53.362;-2.222;2022-07-06T12:44:44;101796.22;;;23.74;39.62
47218;BME280;47282;53.362;-2.222;2022-07-06T12:47:17;101794.56;;;23.31;39.99
47218;BME280;47282;53.362;-2.222;2022-07-06T12:49:45;101794.02;;;23.08;40.29